Time;durP1;ratioP1;P1;durP2;ratioP2;P2;SDS_P1;SDS_P2;PMS_P1;PMS_P2;Temp;Humidity;BMP_temperature;BMP_pressure;BME280_temperature;BME280_humidity;BME280_pressure;Samples;Min_cycle;Max_cycle;Signal;HPM_P1;HPM_P2
2021/07/22 00:00:00;;;;;;;18.27;10.15;;;;;;;;;;5063659;28;20115;-82
2021/07/22 00:02:28;;;;;;;18.23;10.40;;;;;;;;;;5061270;28;20422;-82
2021/07/22 00:04:53;;;;;;;18.05;10.35;;;;;;;;;;5037681;28;20630;-81
2021/07/22 00:07:18;;;;;;;16.73;10.52;;;;;;;;;;5030855;28;20023;-82
2021/07/22 00:09:43;;;;;;;16.63;10.17;;;;;;;;;;5060316;28;20017;-82
2021/07/22 00:12:09;;;;;;;18.50;10.10;;;;;;;;;;5066585;28;20274;-83
2021/07/22 00:14:35;;;;;;;19.48;10.98;;;;;;;;;;5064827;28;20638;-82
2021/07/22 00:17:03;;;;;;;20.48;10.43;;;;;;;;;;5049200;28;20071;-82
2021/07/22 00:19:29;;;;;;;16.40;9.70;;;;;;;;;;5046800;28;20055;-82
2021/07/22 00:21:54;;;;;;;17.38;10.02;;;;;;;;;;5051710;28;20049;-82
2021/07/22 00:24:19;;;;;;;24.77;10.13;;;;;;;;;;5058792;28;20078;-82
2021/07/22 00:26:44;;;;;;;20.00;9.90;;;;;;;;;;5056902;28;20282;-82
2021/07/22 00:29:09;;;;;;;20.70;9.67;;;;;;;;;;5059913;28;20329;-82
2021/07/22 00:31:35;;;;;;;20.77;10.23;;;;;;;;;;5060459;28;20354;-83
2021/07/22 00:34:00;;;;;;;18.23;9.95;;;;;;;;;;5045055;28;20312;-82
2021/07/22 00:36:25;;;;;;;17.40;9.50;;;;;;;;;;5059720;28;20480;-82
2021/07/22 00:38:51;;;;;;;14.83;9.37;;;;;;;;;;5054602;28;20091;-82
2021/07/22 00:41:16;;;;;;;20.10;10.13;;;;;;;;;;5041024;28;20267;-82
2021/07/22 00:43:41;;;;;;;17.57;9.43;;;;;;;;;;5048404;28;20027;-82
2021/07/22 00:46:07;;;;;;;17.42;9.82;;;;;;;;;;5065324;28;20287;-82
2021/07/22 00:48:32;;;;;;;18.48;10.10;;;;;;;;;;5063282;28;20023;-83
2021/07/22 00:50:58;;;;;;;21.73;10.00;;;;;;;;;;5065572;28;20468;-82
2021/07/22 00:53:23;;;;;;;18.47;9.90;;;;;;;;;;5065740;28;20059;-82
2021/07/22 00:55:48;;;;;;;16.55;9.98;;;;;;;;;;5064163;28;20297;-83
2021/07/22 00:58:13;;;;;;;17.27;9.50;;;;;;;;;;5064628;28;20036;-83
2021/07/22 01:00:38;;;;;;;19.17;10.50;;;;;;;;;;5059033;28;20281;-82
2021/07/22 01:03:03;;;;;;;18.80;10.32;;;;;;;;;;5065849;28;20766;-82
2021/07/22 01:05:29;;;;;;;22.25;10.38;;;;;;;;;;5061457;28;20046;-82
2021/07/22 01:07:54;;;;;;;21.83;9.23;;;;;;;;;;5058201;28;20471;-82
2021/07/22 01:10:19;;;;;;;19.43;10.30;;;;;;;;;;5058689;28;20398;-82
2021/07/22 01:12:44;;;;;;;16.43;8.90;;;;;;;;;;5057835;28;20273;-82
2021/07/22 01:15:10;;;;;;;16.03;9.57;;;;;;;;;;5045379;28;20778;-82
2021/07/22 01:17:45;;;;;;;20.80;9.80;;;;;;;;;;5047030;28;20265;-82
2021/07/22 01:20:10;;;;;;;18.30;9.05;;;;;;;;;;5042917;28;20023;-82
2021/07/22 01:22:35;;;;;;;20.92;10.15;;;;;;;;;;5059859;28;20406;-82
2021/07/22 01:25:00;;;;;;;16.80;9.67;;;;;;;;;;5045836;28;20024;-82
2021/07/22 01:27:26;;;;;;;20.13;9.93;;;;;;;;;;5059348;28;20682;-82
2021/07/22 01:29:51;;;;;;;18.73;9.77;;;;;;;;;;5062013;28;20278;-82
2021/07/22 01:32:16;;;;;;;16.40;9.73;;;;;;;;;;5065723;28;20267;-83
2021/07/22 01:34:41;;;;;;;22.25;10.02;;;;;;;;;;5057017;28;20366;-83
2021/07/22 01:37:06;;;;;;;17.08;9.63;;;;;;;;;;5058651;28;20419;-82
2021/07/22 01:39:32;;;;;;;19.33;9.53;;;;;;;;;;5060123;28;20421;-82
2021/07/22 01:41:57;;;;;;;19.05;9.52;;;;;;;;;;5040312;28;20298;-83
2021/07/22 01:44:22;;;;;;;19.13;9.33;;;;;;;;;;5063059;28;20032;-82
2021/07/22 01:46:47;;;;;;;17.13;8.90;;;;;;;;;;5037725;28;20283;-82
2021/07/22 01:49:12;;;;;;;21.17;8.90;;;;;;;;;;5055312;28;20848;-83
2021/07/22 01:51:37;;;;;;;16.53;9.60;;;;;;;;;;5063064;28;20270;-83
2021/07/22 01:54:03;;;;;;;18.90;9.53;;;;;;;;;;5065211;28;20285;-82
2021/07/22 01:56:28;;;;;;;17.70;9.13;;;;;;;;;;5066034;28;20336;-83
2021/07/22 01:58:53;;;;;;;17.13;9.17;;;;;;;;;;5046901;28;20028;-83
2021/07/22 02:01:18;;;;;;;18.73;9.17;;;;;;;;;;5035421;28;20555;-82
2021/07/22 02:03:43;;;;;;;17.98;9.32;;;;;;;;;;5057214;28;20833;-81
2021/07/22 02:06:09;;;;;;;15.68;8.68;;;;;;;;;;5057789;28;20536;-81
2021/07/22 02:08:37;;;;;;;17.80;8.50;;;;;;;;;;5054199;28;20506;-83
2021/07/22 02:11:02;;;;;;;18.55;9.10;;;;;;;;;;5052315;28;20514;-83
2021/07/22 02:13:28;;;;;;;22.58;10.15;;;;;;;;;;5057245;28;20441;-82
2021/07/22 02:15:53;;;;;;;18.40;9.00;;;;;;;;;;5063649;28;20058;-82
2021/07/22 02:18:18;;;;;;;18.10;9.23;;;;;;;;;;5049830;28;20626;-82
2021/07/22 02:20:43;;;;;;;21.27;9.27;;;;;;;;;;5037976;28;20271;-83
2021/07/22 02:23:08;;;;;;;15.63;8.57;;;;;;;;;;5047701;28;20278;-82
2021/07/22 02:25:34;;;;;;;19.43;9.77;;;;;;;;;;5058900;28;20305;-83
2021/07/22 02:27:59;;;;;;;18.40;9.57;;;;;;;;;;5049840;28;20354;-83
2021/07/22 02:30:24;;;;;;;20.70;8.40;;;;;;;;;;5056162;28;20029;-82
2021/07/22 02:32:49;;;;;;;15.97;9.20;;;;;;;;;;5060988;28;20274;-83
2021/07/22 02:35:15;;;;;;;21.63;8.77;;;;;;;;;;5045702;28;20286;-83
2021/07/22 02:37:40;;;;;;;18.80;9.23;;;;;;;;;;5055710;28;20267;-83
2021/07/22 02:40:05;;;;;;;18.27;9.73;;;;;;;;;;5040438;28;20325;-82
2021/07/22 02:42:30;;;;;;;19.58;9.02;;;;;;;;;;5064332;28;20273;-82
2021/07/22 02:44:56;;;;;;;18.43;8.37;;;;;;;;;;5046364;28;20024;-82
2021/07/22 02:47:21;;;;;;;21.20;9.35;;;;;;;;;;5059339;28;20281;-82
2021/07/22 02:49:46;;;;;;;17.63;9.57;;;;;;;;;;5057218;28;20036;-83
2021/07/22 02:52:12;;;;;;;20.20;9.27;;;;;;;;;;5065873;28;20267;-82
2021/07/22 02:54:37;;;;;;;20.17;9.23;;;;;;;;;;5058259;28;20266;-82
2021/07/22 02:57:02;;;;;;;16.70;9.07;;;;;;;;;;5062699;28;20029;-82
2021/07/22 02:59:27;;;;;;;18.63;9.00;;;;;;;;;;5061377;28;20785;-81
2021/07/22 03:01:52;;;;;;;17.45;9.02;;;;;;;;;;5063312;28;20017;-83
2021/07/22 03:04:18;;;;;;;18.10;9.70;;;;;;;;;;5047816;28;20107;-82
2021/07/22 03:06:43;;;;;;;18.77;9.45;;;;;;;;;;5055079;28;20628;-82
2021/07/22 03:09:08;;;;;;;15.13;8.73;;;;;;;;;;5048037;28;20502;-82
2021/07/22 03:11:33;;;;;;;16.07;8.53;;;;;;;;;;5066454;28;20024;-82
2021/07/22 03:13:59;;;;;;;17.60;10.07;;;;;;;;;;5060864;28;20286;-82
2021/07/22 03:16:24;;;;;;;19.40;9.10;;;;;;;;;;5047574;28;20294;-82
2021/07/22 03:18:49;;;;;;;25.50;8.57;;;;;;;;;;5066454;28;20017;-83
2021/07/22 03:21:14;;;;;;;15.95;8.55;;;;;;;;;;5067024;28;20679;-82
2021/07/22 03:23:40;;;;;;;18.53;8.63;;;;;;;;;;5067947;28;20028;-83
2021/07/22 03:26:05;;;;;;;15.93;8.73;;;;;;;;;;5058840;28;20352;-82
2021/07/22 03:28:30;;;;;;;16.90;8.70;;;;;;;;;;5054599;28;20430;-82
2021/07/22 03:30:55;;;;;;;21.35;9.77;;;;;;;;;;5044203;28;20365;-82
2021/07/22 03:33:20;;;;;;;17.73;8.70;;;;;;;;;;5051567;28;20013;-82
2021/07/22 03:35:46;;;;;;;18.70;9.57;;;;;;;;;;5063882;28;20347;-82
2021/07/22 03:38:11;;;;;;;17.80;9.30;;;;;;;;;;5061851;28;20283;-82
2021/07/22 03:40:36;;;;;;;16.83;8.80;;;;;;;;;;5062070;28;20036;-82
2021/07/22 03:43:01;;;;;;;17.27;8.63;;;;;;;;;;5050912;28;20262;-82
2021/07/22 03:45:26;;;;;;;14.52;8.90;;;;;;;;;;5058611;28;20033;-82
2021/07/22 03:47:51;;;;;;;17.47;9.53;;;;;;;;;;5046407;28;20025;-82
2021/07/22 03:50:17;;;;;;;20.00;8.63;;;;;;;;;;5067463;28;20337;-82
2021/07/22 03:52:42;;;;;;;19.85;9.23;;;;;;;;;;5049603;28;20309;-83
2021/07/22 03:55:08;;;;;;;19.20;8.90;;;;;;;;;;5047742;28;20028;-82
2021/07/22 03:57:33;;;;;;;19.85;9.00;;;;;;;;;;5059029;28;20388;-82
2021/07/22 03:59:58;;;;;;;14.97;8.73;;;;;;;;;;5065588;28;20036;-82
2021/07/22 04:02:23;;;;;;;18.87;8.87;;;;;;;;;;5057493;28;20722;-82
2021/07/22 04:04:48;;;;;;;21.05;9.57;;;;;;;;;;5070232;28;20392;-82
2021/07/22 04:07:14;;;;;;;21.40;8.53;;;;;;;;;;5075021;28;20044;-81
2021/07/22 04:09:40;;;;;;;20.27;9.00;;;;;;;;;;5054779;28;20270;-82
2021/07/22 04:12:05;;;;;;;16.23;9.35;;;;;;;;;;5072484;28;20017;-82
2021/07/22 04:14:30;;;;;;;18.15;9.38;;;;;;;;;;5074735;28;20066;-82
2021/07/22 04:16:55;;;;;;;22.52;9.43;;;;;;;;;;5069423;28;20040;-82
2021/07/22 04:19:21;;;;;;;18.00;10.13;;;;;;;;;;5055975;28;20033;-82
2021/07/22 04:21:46;;;;;;;17.27;9.50;;;;;;;;;;5061804;28;20279;-83
2021/07/22 04:24:11;;;;;;;14.85;8.55;;;;;;;;;;5061434;28;20103;-83
2021/07/22 04:26:36;;;;;;;20.05;9.30;;;;;;;;;;5069554;28;20024;-81
2021/07/22 04:29:02;;;;;;;17.40;8.77;;;;;;;;;;5068584;28;20051;-82
2021/07/22 04:31:27;;;;;;;15.80;8.82;;;;;;;;;;5061185;28;20271;-82
2021/07/22 04:33:52;;;;;;;20.63;8.97;;;;;;;;;;5066923;28;20024;-83
2021/07/22 04:36:17;;;;;;;16.77;8.73;;;;;;;;;;5064039;28;20270;-83
2021/07/22 04:38:43;;;;;;;15.45;8.40;;;;;;;;;;5043092;28;21804;-83
2021/07/22 04:41:08;;;;;;;18.48;9.15;;;;;;;;;;5065286;28;20149;-83
2021/07/22 04:43:33;;;;;;;18.52;8.77;;;;;;;;;;5047884;28;20076;-83
2021/07/22 04:46:05;;;;;;;19.90;9.45;;;;;;;;;;5055185;28;20028;-83
2021/07/22 04:48:30;;;;;;;18.63;8.63;;;;;;;;;;5044862;28;20025;-83
2021/07/22 04:50:56;;;;;;;20.85;8.95;;;;;;;;;;5061594;28;20021;-82
2021/07/22 04:53:21;;;;;;;22.50;9.57;;;;;;;;;;5045113;28;20553;-82
2021/07/22 04:55:46;;;;;;;16.95;8.65;;;;;;;;;;5061019;28;20491;-82
2021/07/22 04:58:11;;;;;;;15.30;8.63;;;;;;;;;;5048993;28;20558;-81
2021/07/22 05:00:36;;;;;;;15.52;8.40;;;;;;;;;;5061527;28;20020;-83
2021/07/22 05:03:02;;;;;;;18.63;9.07;;;;;;;;;;5050027;28;20480;-83
2021/07/22 05:05:27;;;;;;;19.27;8.07;;;;;;;;;;5056206;28;20507;-82
2021/07/22 05:07:53;;;;;;;15.80;7.75;;;;;;;;;;5055827;28;20017;-83
2021/07/22 05:10:18;;;;;;;19.90;8.82;;;;;;;;;;5060580;28;20051;-82
2021/07/22 05:12:43;;;;;;;18.75;8.82;;;;;;;;;;5044040;28;20384;-82
2021/07/22 05:15:09;;;;;;;18.65;9.55;;;;;;;;;;5042850;28;20021;-83
2021/07/22 05:17:37;;;;;;;21.75;10.00;;;;;;;;;;5057906;28;20510;-82
2021/07/22 05:20:03;;;;;;;16.92;9.05;;;;;;;;;;5062584;28;20028;-83
2021/07/22 05:22:28;;;;;;;27.10;9.57;;;;;;;;;;5062247;28;20024;-83
2021/07/22 05:24:53;;;;;;;25.43;9.47;;;;;;;;;;5063259;28;20024;-83
2021/07/22 05:27:19;;;;;;;21.43;9.70;;;;;;;;;;5063404;28;20891;-83
2021/07/22 05:29:44;;;;;;;30.80;9.45;;;;;;;;;;5042345;28;20279;-83
2021/07/22 05:32:12;;;;;;;21.05;10.57;;;;;;;;;;5037531;28;20020;-82
2021/07/22 05:34:37;;;;;;;20.73;9.63;;;;;;;;;;5067725;28;20142;-82
2021/07/22 05:37:21;;;;;;;18.37;9.63;;;;;;;;;;5059439;28;20511;-83
2021/07/22 05:39:46;;;;;;;18.58;10.13;;;;;;;;;;5053603;28;20278;-84
2021/07/22 05:42:12;;;;;;;17.33;9.43;;;;;;;;;;5045715;28;20458;-81
2021/07/22 05:44:37;;;;;;;23.23;9.82;;;;;;;;;;5043225;28;20114;-82
2021/07/22 05:47:02;;;;;;;15.43;8.68;;;;;;;;;;5058432;28;20021;-82
2021/07/22 05:49:27;;;;;;;23.05;10.55;;;;;;;;;;5053225;28;20017;-81
2021/07/22 05:51:52;;;;;;;22.80;10.07;;;;;;;;;;5053707;28;20383;-81
2021/07/22 05:54:18;;;;;;;15.00;8.87;;;;;;;;;;5033819;28;20274;-81
2021/07/22 05:56:43;;;;;;;17.23;8.67;;;;;;;;;;5060128;28;20293;-81
2021/07/22 05:59:08;;;;;;;19.23;8.53;;;;;;;;;;5058757;28;20290;-81
2021/07/22 06:01:33;;;;;;;18.20;8.55;;;;;;;;;;5052427;28;20370;-82
2021/07/22 06:03:58;;;;;;;32.43;9.80;;;;;;;;;;5042295;28;20028;-82
2021/07/22 06:06:24;;;;;;;20.58;9.57;;;;;;;;;;5063731;28;20328;-82
2021/07/22 06:08:49;;;;;;;17.57;9.43;;;;;;;;;;5069298;28;20035;-82
2021/07/22 06:11:15;;;;;;;15.57;8.77;;;;;;;;;;5071945;28;20263;-82
2021/07/22 06:13:41;;;;;;;16.55;9.27;;;;;;;;;;5072307;28;20017;-82
2021/07/22 06:16:10;;;;;;;21.15;9.82;;;;;;;;;;5071220;28;20055;-82
2021/07/22 06:18:36;;;;;;;20.30;9.07;;;;;;;;;;5069794;28;20052;-82
2021/07/22 06:21:01;;;;;;;21.83;9.35;;;;;;;;;;5070868;28;20293;-82
2021/07/22 06:23:26;;;;;;;16.73;10.20;;;;;;;;;;5070768;28;20020;-82
2021/07/22 06:25:55;;;;;;;18.92;9.30;;;;;;;;;;5053871;28;20271;-82
2021/07/22 06:28:20;;;;;;;15.23;8.80;;;;;;;;;;5053349;28;20023;-82
2021/07/22 06:30:46;;;;;;;25.43;9.40;;;;;;;;;;5071139;28;20025;-83
2021/07/22 06:33:11;;;;;;;17.80;9.60;;;;;;;;;;5071436;28;20254;-82
2021/07/22 06:35:36;;;;;;;19.30;10.40;;;;;;;;;;5070822;28;20312;-82
2021/07/22 06:38:01;;;;;;;18.38;9.57;;;;;;;;;;5070254;28;20735;-83
2021/07/22 06:40:26;;;;;;;22.40;10.02;;;;;;;;;;5067909;28;20016;-82
2021/07/22 06:42:52;;;;;;;18.77;9.63;;;;;;;;;;5053970;28;20070;-82
2021/07/22 06:45:17;;;;;;;16.43;8.40;;;;;;;;;;5071121;28;20275;-82
2021/07/22 06:47:42;;;;;;;15.52;9.55;;;;;;;;;;5071262;28;20291;-82
2021/07/22 06:50:08;;;;;;;16.85;9.40;;;;;;;;;;5053512;28;20028;-82
2021/07/22 06:52:37;;;;;;;17.92;9.70;;;;;;;;;;5071491;28;20096;-82
2021/07/22 06:55:03;;;;;;;16.17;9.50;;;;;;;;;;5069580;28;20017;-82
2021/07/22 06:57:28;;;;;;;18.45;9.73;;;;;;;;;;5070012;28;20021;-83
2021/07/22 06:59:53;;;;;;;21.47;10.20;;;;;;;;;;5069117;28;20419;-82
2021/07/22 07:02:18;;;;;;;19.73;9.13;;;;;;;;;;5068821;28;20302;-83
2021/07/22 07:04:44;;;;;;;17.90;9.60;;;;;;;;;;5069881;28;20063;-83
2021/07/22 07:07:09;;;;;;;24.55;9.07;;;;;;;;;;5071027;28;20266;-83
2021/07/22 07:09:34;;;;;;;19.50;9.03;;;;;;;;;;5070615;28;20400;-82
2021/07/22 07:11:59;;;;;;;18.50;9.37;;;;;;;;;;5054819;28;20262;-83
2021/07/22 07:14:25;;;;;;;21.30;9.40;;;;;;;;;;5070485;28;20262;-83
2021/07/22 07:16:50;;;;;;;15.60;9.10;;;;;;;;;;5052370;28;20313;-82
2021/07/22 07:19:15;;;;;;;15.27;8.82;;;;;;;;;;5051665;28;20043;-83
2021/07/22 07:21:40;;;;;;;17.33;9.30;;;;;;;;;;5069717;28;20099;-83
2021/07/22 07:24:06;;;;;;;16.63;9.27;;;;;;;;;;5051015;28;20274;-82
2021/07/22 07:26:31;;;;;;;17.17;9.52;;;;;;;;;;5066131;28;20775;-82
2021/07/22 07:28:57;;;;;;;16.88;8.60;;;;;;;;;;5068276;28;20081;-82
2021/07/22 07:31:22;;;;;;;15.57;9.05;;;;;;;;;;5070527;28;20048;-82
2021/07/22 07:33:48;;;;;;;15.73;9.52;;;;;;;;;;5070291;28;20021;-82
2021/07/22 07:36:13;;;;;;;15.02;8.13;;;;;;;;;;5068882;28;20019;-82
2021/07/22 07:38:38;;;;;;;16.50;8.63;;;;;;;;;;5051587;28;20020;-82
2021/07/22 07:41:03;;;;;;;15.83;8.37;;;;;;;;;;5068955;28;20655;-82
2021/07/22 07:43:28;;;;;;;23.30;9.30;;;;;;;;;;5069951;28;20267;-82
2021/07/22 07:45:54;;;;;;;17.30;9.40;;;;;;;;;;5069694;28;20111;-82
2021/07/22 07:48:19;;;;;;;18.80;8.60;;;;;;;;;;5068609;28;20272;-82
2021/07/22 07:50:44;;;;;;;17.23;8.40;;;;;;;;;;5069632;28;20021;-82
2021/07/22 07:53:14;;;;;;;14.20;8.10;;;;;;;;;;5069187;28;20266;-82
2021/07/22 07:55:39;;;;;;;17.08;8.35;;;;;;;;;;5070388;28;20378;-83
2021/07/22 07:58:04;;;;;;;16.23;8.50;;;;;;;;;;5067832;28;20035;-82
2021/07/22 08:00:30;;;;;;;17.70;8.63;;;;;;;;;;5067101;28;20036;-83
2021/07/22 08:02:58;;;;;;;14.83;8.40;;;;;;;;;;5069367;28;20540;-83
2021/07/22 08:05:24;;;;;;;22.52;8.90;;;;;;;;;;5068800;28;20750;-83
2021/07/22 08:07:49;;;;;;;14.57;9.02;;;;;;;;;;5068586;28;20241;-82
2021/07/22 08:10:14;;;;;;;20.03;8.47;;;;;;;;;;5068068;28;20067;-82
2021/07/22 08:12:39;;;;;;;17.95;8.73;;;;;;;;;;5051457;28;20020;-82
2021/07/22 08:15:05;;;;;;;17.02;8.85;;;;;;;;;;5068773;28;20020;-82
2021/07/22 08:17:30;;;;;;;21.30;9.15;;;;;;;;;;5068217;28;20016;-82
2021/07/22 08:19:59;;;;;;;17.77;8.75;;;;;;;;;;5068779;28;20024;-82
2021/07/22 08:22:25;;;;;;;14.50;8.90;;;;;;;;;;5068616;28;20563;-82
2021/07/22 08:24:50;;;;;;;16.95;8.75;;;;;;;;;;5068620;28;20400;-82
2021/07/22 08:27:23;;;;;;;14.80;9.30;;;;;;;;;;5069061;28;20032;-83
2021/07/22 08:29:48;;;;;;;14.10;8.43;;;;;;;;;;5068449;28;20628;-83
2021/07/22 08:32:13;;;;;;;18.37;9.23;;;;;;;;;;5066860;28;20017;-82
2021/07/22 08:34:38;;;;;;;22.67;9.83;;;;;;;;;;5069193;28;20036;-82
2021/07/22 08:37:08;;;;;;;17.57;10.37;;;;;;;;;;5067400;28;20514;-82
2021/07/22 08:39:40;;;;;;;21.30;9.20;;;;;;;;;;5067742;28;20047;-83
2021/07/22 08:42:06;;;;;;;20.70;10.52;;;;;;;;;;5047419;28;20029;-83
2021/07/22 08:44:32;;;;;;;31.67;10.80;;;;;;;;;;5049445;28;20021;-82
2021/07/22 08:46:58;;;;;;;29.70;11.90;;;;;;;;;;5040789;28;20032;-83
2021/07/22 08:49:24;;;;;;;17.77;11.15;;;;;;;;;;5066732;28;20021;-83
2021/07/22 08:51:51;;;;;;;21.27;11.15;;;;;;;;;;5050686;28;20032;-82
2021/07/22 08:54:16;;;;;;;54.33;12.13;;;;;;;;;;5051458;28;20037;-82
2021/07/22 08:56:41;;;;;;;19.80;11.70;;;;;;;;;;5043323;28;20039;-83
2021/07/22 08:59:07;;;;;;;19.70;9.93;;;;;;;;;;5067686;28;20107;-83
2021/07/22 09:01:35;;;;;;;24.10;10.40;;;;;;;;;;5068606;28;20271;-82
2021/07/22 09:04:00;;;;;;;20.58;10.48;;;;;;;;;;5050368;28;20455;-82
2021/07/22 09:06:26;;;;;;;24.55;9.98;;;;;;;;;;5068325;28;20119;-83
2021/07/22 09:08:51;;;;;;;17.15;9.77;;;;;;;;;;5050503;28;20509;-82
2021/07/22 09:11:16;;;;;;;30.35;9.75;;;;;;;;;;5067959;28;20025;-83
2021/07/22 09:13:41;;;;;;;23.67;10.70;;;;;;;;;;5050768;28;20107;-83
2021/07/22 09:16:07;;;;;;;17.70;10.25;;;;;;;;;;5068213;28;20028;-82
2021/07/22 09:18:36;;;;;;;17.27;9.95;;;;;;;;;;5049527;28;20439;-83
2021/07/22 09:21:17;;;;;;;26.63;9.85;;;;;;;;;;5068753;28;20099;-83
2021/07/22 09:24:01;;;;;;;21.67;10.70;;;;;;;;;;5068011;28;20020;-83
2021/07/22 09:26:33;;;;;;;23.52;11.40;;;;;;;;;;5068610;28;20016;-83
2021/07/22 09:29:03;;;;;;;23.00;10.93;;;;;;;;;;5051141;28;20078;-83
2021/07/22 09:31:28;;;;;;;23.35;10.20;;;;;;;;;;5069371;28;20087;-84
2021/07/22 09:33:53;;;;;;;23.10;10.65;;;;;;;;;;5067376;28;20024;-83
2021/07/22 09:36:19;;;;;;;27.87;11.30;;;;;;;;;;5061404;28;20024;-83
2021/07/22 09:38:44;;;;;;;24.97;12.33;;;;;;;;;;5063899;28;20527;-83
2021/07/22 09:41:16;;;;;;;22.60;10.57;;;;;;;;;;5067866;28;20020;-83
2021/07/22 09:43:43;;;;;;;22.25;10.27;;;;;;;;;;5050824;28;20096;-83
2021/07/22 09:46:08;;;;;;;22.95;11.02;;;;;;;;;;5068401;28;20551;-83
2021/07/22 09:48:34;;;;;;;19.08;10.65;;;;;;;;;;5049942;28;20135;-83
2021/07/22 09:50:59;;;;;;;19.73;9.45;;;;;;;;;;5049646;28;20056;-84
2021/07/22 09:53:27;;;;;;;20.13;9.20;;;;;;;;;;5068083;28;20024;-84
2021/07/22 09:55:53;;;;;;;22.75;10.35;;;;;;;;;;5067739;28;20032;-83
2021/07/22 09:58:19;;;;;;;15.80;9.05;;;;;;;;;;5064252;28;20761;-83
2021/07/22 10:00:46;;;;;;;27.08;9.98;;;;;;;;;;5058038;28;20050;-83
2021/07/22 10:03:15;;;;;;;19.15;9.82;;;;;;;;;;5050891;28;20041;-83
2021/07/22 10:06:03;;;;;;;16.90;8.98;;;;;;;;;;5065062;28;20060;-83
2021/07/22 10:08:31;;;;;;;16.17;9.95;;;;;;;;;;5053840;28;20033;-83
2021/07/22 10:10:57;;;;;;;16.55;10.35;;;;;;;;;;5054585;28;20511;-83
2021/07/22 10:13:27;;;;;;;24.00;11.20;;;;;;;;;;5069146;28;20025;-83
2021/07/22 10:15:53;;;;;;;22.42;11.57;;;;;;;;;;5052126;28;20029;-82
2021/07/22 10:18:20;;;;;;;21.58;11.20;;;;;;;;;;5069269;28;20082;-82
2021/07/22 10:20:49;;;;;;;20.52;10.20;;;;;;;;;;5072063;28;20421;-84
2021/07/22 10:23:14;;;;;;;16.55;9.63;;;;;;;;;;5050571;28;20021;-83
2021/07/22 10:25:39;;;;;;;30.85;12.40;;;;;;;;;;5070689;28;20048;-83
2021/07/22 10:28:05;;;;;;;22.40;12.10;;;;;;;;;;5068682;28;20040;-83
2021/07/22 10:30:30;;;;;;;27.10;12.00;;;;;;;;;;5068354;28;20024;-83
2021/07/22 10:32:58;;;;;;;21.83;10.95;;;;;;;;;;5050155;28;20055;-84
2021/07/22 10:35:30;;;;;;;21.80;10.32;;;;;;;;;;5050061;28;20031;-84
2021/07/22 10:38:24;;;;;;;19.42;10.80;;;;;;;;;;5065869;28;20111;-84
2021/07/22 10:41:01;;;;;;;20.55;10.77;;;;;;;;;;5047662;28;20037;-84
2021/07/22 10:43:40;;;;;;;21.80;11.68;;;;;;;;;;5064091;28;20032;-84
2021/07/22 10:46:09;;;;;;;20.45;11.70;;;;;;;;;;5063563;28;20087;-83
2021/07/22 10:48:35;;;;;;;25.05;12.80;;;;;;;;;;5086815;28;20013;-83
2021/07/22 10:51:02;;;;;;;21.50;11.20;;;;;;;;;;5066960;28;20091;-84
2021/07/22 10:53:42;;;;;;;23.77;11.23;;;;;;;;;;5073477;28;20022;-83
2021/07/22 10:56:10;;;;;;;24.23;13.23;;;;;;;;;;5072656;28;20020;-83
2021/07/22 10:58:36;;;;;;;19.08;10.68;;;;;;;;;;5054255;28;20028;-84
2021/07/22 11:01:01;;;;;;;23.77;12.17;;;;;;;;;;5053912;28;20078;-84
2021/07/22 11:03:32;;;;;;;19.85;11.07;;;;;;;;;;5052532;28;20020;-83
2021/07/22 11:05:58;;;;;;;17.45;10.80;;;;;;;;;;5071182;28;20025;-84
2021/07/22 11:08:25;;;;;;;20.95;11.75;;;;;;;;;;5070927;28;20028;-83
2021/07/22 11:10:51;;;;;;;16.65;10.63;;;;;;;;;;5084772;28;20012;-83
2021/07/22 11:13:38;;;;;;;16.95;10.75;;;;;;;;;;5086758;28;20389;-83
2021/07/22 11:16:08;;;;;;;17.27;10.35;;;;;;;;;;5086524;28;20025;-83
2021/07/22 11:18:39;;;;;;;20.75;11.85;;;;;;;;;;5073386;28;20028;-83
2021/07/22 11:21:05;;;;;;;24.17;13.93;;;;;;;;;;5051579;28;20572;-84
2021/07/22 11:23:31;;;;;;;19.10;11.20;;;;;;;;;;5052566;28;20032;-84
2021/07/22 11:25:56;;;;;;;21.85;11.98;;;;;;;;;;5063784;28;20029;-83
2021/07/22 11:28:23;;;;;;;18.37;10.33;;;;;;;;;;5069232;28;20039;-84
2021/07/22 11:30:57;;;;;;;23.17;12.98;;;;;;;;;;5056106;28;20815;-84
2021/07/22 11:33:22;;;;;;;26.25;12.60;;;;;;;;;;5051939;28;20032;-84
2021/07/22 11:35:57;;;;;;;30.37;12.50;;;;;;;;;;5069199;28;20020;-82
2021/07/22 11:38:24;;;;;;;22.35;13.30;;;;;;;;;;5050739;28;20770;-83
2021/07/22 11:40:49;;;;;;;21.35;12.32;;;;;;;;;;5051138;28;21796;-83
2021/07/22 11:43:33;;;;;;;24.83;11.68;;;;;;;;;;5069733;28;20020;-84
2021/07/22 11:45:59;;;;;;;20.63;12.02;;;;;;;;;;5059682;28;20079;-83
2021/07/22 11:48:24;;;;;;;16.75;11.65;;;;;;;;;;5068885;28;20433;-84
2021/07/22 11:51:28;;;;;;;20.02;11.68;;;;;;;;;;5068996;28;20024;-83
2021/07/22 11:53:56;;;;;;;24.55;11.65;;;;;;;;;;4989597;28;20030;-84
2021/07/22 11:56:21;;;;;;;21.80;11.65;;;;;;;;;;4973004;28;20026;-83
2021/07/22 11:58:48;;;;;;;21.55;12.25;;;;;;;;;;5000641;28;20476;-83
2021/07/22 12:01:13;;;;;;;22.70;11.63;;;;;;;;;;5093958;22;20052;-66
2021/07/22 12:03:38;;;;;;;24.63;11.70;;;;;;;;;;5082239;28;20020;-67
2021/07/22 12:06:04;;;;;;;18.50;10.48;;;;;;;;;;5079544;28;20027;-66
2021/07/22 12:08:29;;;;;;;23.10;12.30;;;;;;;;;;5075943;28;20436;-66
2021/07/22 12:10:59;;;;;;;20.98;11.45;;;;;;;;;;5076824;28;20337;-65
2021/07/22 12:13:24;;;;;;;;;;;;;;;;;;5081737;28;20357;-65
2021/07/22 12:15:49;;;;;;;21.45;12.60;;;;;;;;;;5083216;28;19977;-65
2021/07/22 12:18:15;;;;;;;20.15;10.73;;;;;;;;;;5079544;28;20048;-65
2021/07/22 12:20:41;;;;;;;22.20;12.18;;;;;;;;;;5079886;28;20020;-66
2021/07/22 12:23:25;;;;;;;23.45;12.43;;;;;;;;;;5079893;28;20103;-65
2021/07/22 12:26:01;;;;;;;24.05;11.68;;;;;;;;;;5072344;28;20020;-65
2021/07/22 12:28:26;;;;;;;20.67;11.02;;;;;;;;;;5083847;28;20021;-66
2021/07/22 12:30:52;;;;;;;18.63;11.18;;;;;;;;;;5075517;28;20147;-65
2021/07/22 12:33:26;;;;;;;18.73;11.25;;;;;;;;;;5078311;28;20396;-66
2021/07/22 12:35:52;;;;;;;28.15;12.70;;;;;;;;;;5090200;28;20448;-66
2021/07/22 12:38:17;;;;;;;28.77;13.52;;;;;;;;;;5090728;28;20119;-66
2021/07/22 12:40:43;;;;;;;25.50;13.02;;;;;;;;;;5087731;28;20346;-66
2021/07/22 12:43:13;;;;;;;26.70;12.80;;;;;;;;;;5071232;28;20028;-65
2021/07/22 12:45:39;;;;;;;27.25;11.85;;;;;;;;;;5075539;28;20119;-66
2021/07/22 12:48:04;;;;;;;23.35;13.40;;;;;;;;;;5077926;28;20132;-65
2021/07/22 12:50:50;;;;;;;27.35;13.60;;;;;;;;;;5072236;28;20028;-65
2021/07/22 12:53:18;;;;;;;28.20;12.07;;;;;;;;;;5071987;28;20036;-65
2021/07/22 12:55:43;;;;;;;19.33;11.77;;;;;;;;;;5078204;28;20111;-66
2021/07/22 12:58:27;;;;;;;28.13;13.68;;;;;;;;;;5070615;28;20107;-66
2021/07/22 13:01:00;;;;;;;17.77;11.15;;;;;;;;;;5071796;28;20033;-65
2021/07/22 13:03:25;;;;;;;21.77;12.35;;;;;;;;;;5072763;28;20024;-65
2021/07/22 13:05:50;;;;;;;22.77;11.82;;;;;;;;;;5077090;28;20020;-65
2021/07/22 13:08:16;;;;;;;21.40;12.63;;;;;;;;;;5087919;28;20028;-65
2021/07/22 13:10:41;;;;;;;22.38;13.00;;;;;;;;;;5081808;28;20028;-66
2021/07/22 13:13:06;;;;;;;23.35;12.60;;;;;;;;;;5091076;28;20016;-66
2021/07/22 13:15:31;;;;;;;21.45;12.30;;;;;;;;;;5074652;28;20084;-66
2021/07/22 13:17:57;;;;;;;21.02;12.48;;;;;;;;;;5085672;28;20035;-65
2021/07/22 13:20:22;;;;;;;21.27;11.33;;;;;;;;;;5074113;28;20019;-66
2021/07/22 13:22:47;;;;;;;18.23;10.33;;;;;;;;;;5090882;28;20032;-65
2021/07/22 13:25:13;;;;;;;18.15;10.55;;;;;;;;;;5078884;28;20271;-66
2021/07/22 13:27:38;;;;;;;22.95;12.77;;;;;;;;;;5084588;28;20016;-66
2021/07/22 13:30:04;;;;;;;18.77;11.15;;;;;;;;;;5086383;28;20028;-65
2021/07/22 13:32:29;;;;;;;21.05;12.02;;;;;;;;;;5078687;28;20032;-65
2021/07/22 13:34:55;;;;;;;23.70;11.60;;;;;;;;;;5084140;28;20027;-65
2021/07/22 13:37:20;;;;;;;22.57;12.07;;;;;;;;;;5089117;28;20051;-65
2021/07/22 13:39:45;;;;;;;19.58;11.75;;;;;;;;;;5075801;28;20016;-65
2021/07/22 13:42:10;;;;;;;21.13;12.52;;;;;;;;;;5075733;28;20025;-66
2021/07/22 13:44:36;;;;;;;22.60;12.73;;;;;;;;;;5083974;28;20032;-65
2021/07/22 13:47:01;;;;;;;20.90;11.73;;;;;;;;;;5076270;28;20279;-65
2021/07/22 13:49:26;;;;;;;22.88;12.07;;;;;;;;;;5078497;28;20021;-65
2021/07/22 13:51:52;;;;;;;44.30;14.00;;;;;;;;;;5075270;28;20025;-65
2021/07/22 13:54:17;;;;;;;21.60;11.70;;;;;;;;;;5081666;28;20066;-66
2021/07/22 13:56:43;;;;;;;25.87;12.43;;;;;;;;;;5076395;28;20032;-65
2021/07/22 13:59:08;;;;;;;23.80;11.75;;;;;;;;;;5073777;28;20734;-65
2021/07/22 14:01:33;;;;;;;19.37;10.83;;;;;;;;;;5084810;28;20036;-65
2021/07/22 14:03:59;;;;;;;24.98;11.63;;;;;;;;;;5076165;28;20127;-66
2021/07/22 14:06:24;;;;;;;21.88;11.35;;;;;;;;;;5075725;28;20035;-65
2021/07/22 14:08:49;;;;;;;24.37;11.63;;;;;;;;;;5074920;28;20031;-65
2021/07/22 14:11:14;;;;;;;22.93;10.47;;;;;;;;;;5074447;28;20817;-66
2021/07/22 14:13:40;;;;;;;17.63;10.87;;;;;;;;;;5086199;28;20028;-66
2021/07/22 14:16:05;;;;;;;19.40;12.07;;;;;;;;;;5074528;28;20273;-66
2021/07/22 14:18:31;;;;;;;21.42;11.52;;;;;;;;;;5073870;28;20022;-66